createdAt,value
2019-03-20T00:00:57.042Z,2.70
2019-03-20T00:02:00.638Z,2.80
2019-03-20T00:03:04.678Z,3.12
2019-03-20T00:04:08.327Z,3.20
2019-03-20T00:05:12.101Z,3.62
2019-03-20T00:06:15.692Z,3.45
2019-03-20T00:07:19.343Z,3.08
2019-03-20T00:08:22.941Z,3.00
2019-03-20T00:09:26.530Z,2.50
2019-03-20T00:10:30.422Z,2.92
2019-03-20T00:11:34.057Z,3.77
2019-03-20T00:12:38.544Z,4.40
2019-03-20T00:13:42.145Z,3.42
2019-03-20T00:14:45.751Z,4.10
2019-03-20T00:15:49.417Z,3.75
2019-03-20T00:16:53.067Z,3.00
2019-03-20T00:17:56.785Z,3.72
2019-03-20T00:19:00.343Z,3.65
2019-03-20T00:20:06.486Z,3.85
2019-03-20T00:21:10.140Z,4.17
2019-03-20T00:22:13.754Z,4.20
2019-03-20T00:23:17.405Z,4.42
2019-03-20T00:24:21.000Z,4.00
2019-03-20T00:25:24.618Z,4.67
2019-03-20T00:26:28.241Z,3.75
2019-03-20T00:27:31.851Z,4.00
2019-03-20T00:28:35.459Z,3.83
2019-03-20T00:29:39.162Z,3.62
2019-03-20T00:30:42.801Z,4.10
2019-03-20T00:31:46.405Z,4.08
2019-03-20T00:32:49.996Z,3.77
2019-03-20T00:33:53.643Z,3.62
2019-03-20T00:35:01.278Z,3.98
2019-03-20T00:36:02.512Z,3.40
2019-03-20T00:37:06.112Z,2.90
2019-03-20T00:38:09.700Z,3.08
2019-03-20T00:39:13.305Z,4.20
2019-03-20T00:40:17.809Z,3.35
2019-03-20T00:41:21.411Z,3.45
2019-03-20T00:42:25.076Z,4.00
2019-03-20T00:43:28.675Z,3.42
2019-03-20T00:44:32.267Z,4.10
2019-03-20T00:45:35.906Z,3.90
2019-03-20T00:46:39.502Z,3.65
2019-03-20T00:47:43.330Z,3.05
2019-03-20T00:48:46.978Z,3.20
2019-03-20T00:49:50.569Z,3.02
2019-03-20T00:50:54.168Z,3.90
2019-03-20T00:51:57.830Z,3.58
2019-03-20T00:53:01.483Z,3.00
2019-03-20T00:54:05.255Z,3.17
2019-03-20T00:55:10.383Z,3.52
2019-03-20T00:56:13.979Z,3.70
2019-03-20T00:57:17.566Z,3.10
2019-03-20T00:58:21.178Z,3.92
2019-03-20T00:59:24.810Z,3.33
2019-03-20T01:00:28.510Z,3.45
2019-03-20T01:01:32.113Z,3.40
2019-03-20T01:02:35.708Z,3.90
2019-03-20T01:03:39.312Z,3.60
2019-03-20T01:04:42.895Z,3.80
2019-03-20T01:05:46.615Z,3.30
2019-03-20T01:06:50.207Z,3.52
2019-03-20T01:07:53.814Z,3.22
2019-03-20T01:08:57.406Z,3.22
2019-03-20T01:10:01.183Z,2.90
2019-03-20T01:11:04.895Z,3.92
2019-03-20T01:12:08.488Z,2.50
2019-03-20T01:13:12.092Z,3.00
2019-03-20T01:14:15.749Z,3.05
2019-03-20T01:15:19.427Z,2.80
2019-03-20T01:16:23.076Z,2.77
2019-03-20T01:17:26.674Z,3.45
2019-03-20T01:18:30.357Z,3.17
2019-03-20T01:19:33.956Z,3.22
2019-03-20T01:20:37.659Z,2.95
2019-03-20T01:21:41.323Z,3.22
2019-03-20T01:22:44.983Z,2.40
2019-03-20T01:23:48.645Z,3.58
2019-03-20T01:24:52.260Z,2.70
2019-03-20T01:25:55.862Z,3.17
2019-03-20T01:26:59.449Z,3.15
2019-03-20T01:28:03.052Z,3.22
2019-03-20T01:29:06.670Z,3.83
2019-03-20T01:30:14.980Z,3.30
2019-03-20T01:31:18.576Z,2.90
2019-03-20T01:32:22.177Z,2.90
2019-03-20T01:33:25.777Z,2.90
2019-03-20T01:34:29.414Z,3.58
2019-03-20T01:35:33.097Z,3.25
2019-03-20T01:36:36.725Z,3.10
2019-03-20T01:37:40.329Z,3.15
2019-03-20T01:38:43.967Z,3.35
2019-03-20T01:39:47.727Z,3.00
2019-03-20T01:40:51.372Z,4.00
2019-03-20T01:41:55.006Z,4.67
2019-03-20T01:42:58.598Z,4.90
2019-03-20T01:44:02.273Z,5.62
2019-03-20T01:45:07.044Z,5.35
2019-03-20T01:46:10.779Z,5.45
2019-03-20T01:47:14.372Z,6.08
2019-03-20T01:48:17.972Z,5.97
2019-03-20T01:49:21.644Z,5.85
2019-03-20T01:50:25.304Z,5.58
2019-03-20T01:51:28.893Z,5.35
2019-03-20T01:52:32.508Z,6.08
2019-03-20T01:53:36.144Z,4.90
2019-03-20T01:54:39.745Z,6.00
2019-03-20T01:55:43.430Z,6.12
2019-03-20T01:56:47.045Z,5.35
2019-03-20T01:57:50.731Z,4.60
2019-03-20T01:58:54.335Z,5.25
2019-03-20T01:59:57.933Z,5.35
2019-03-20T02:01:01.561Z,5.95
2019-03-20T02:02:06.147Z,5.65
2019-03-20T02:03:09.751Z,5.78
2019-03-20T02:04:13.342Z,5.35
2019-03-20T02:05:17.076Z,4.67
2019-03-20T02:06:20.671Z,5.12
2019-03-20T02:07:24.339Z,5.83
2019-03-20T02:08:27.930Z,5.42
2019-03-20T02:09:31.515Z,5.50
2019-03-20T02:10:35.190Z,5.75
2019-03-20T02:11:38.793Z,6.33
2019-03-20T02:12:42.586Z,5.50
2019-03-20T02:13:46.186Z,4.83
2019-03-20T02:14:49.779Z,5.20
2019-03-20T02:15:53.391Z,5.80
2019-03-20T02:16:56.992Z,5.83
2019-03-20T02:18:00.629Z,5.50
2019-03-20T02:19:04.306Z,5.35
2019-03-20T02:20:10.609Z,5.70
2019-03-20T02:21:14.220Z,5.20
2019-03-20T02:22:17.874Z,5.45
2019-03-20T02:23:21.507Z,5.65
2019-03-20T02:24:25.111Z,6.37
2019-03-20T02:25:28.758Z,5.58
2019-03-20T02:26:32.357Z,5.58
2019-03-20T02:27:35.955Z,5.62
2019-03-20T02:28:39.554Z,5.00
2019-03-20T02:29:43.183Z,5.70
2019-03-20T02:30:46.772Z,5.60
2019-03-20T02:31:50.374Z,6.12
2019-03-20T02:32:54.010Z,5.50
2019-03-20T02:33:57.631Z,5.75
2019-03-20T02:35:01.245Z,6.08
2019-03-20T02:36:04.915Z,6.12
2019-03-20T02:37:08.515Z,5.35
2019-03-20T02:38:12.115Z,5.50
2019-03-20T02:39:15.763Z,5.45
2019-03-20T02:40:19.377Z,6.00
2019-03-20T02:41:22.971Z,6.65
2019-03-20T02:42:26.638Z,5.80
2019-03-20T02:43:30.243Z,5.53
2019-03-20T02:44:33.837Z,6.10
2019-03-20T02:45:37.447Z,5.35
2019-03-20T02:46:41.054Z,7.08
2019-03-20T02:47:45.133Z,6.47
2019-03-20T02:48:48.743Z,6.55
2019-03-20T02:49:52.407Z,6.53
2019-03-20T02:50:56.110Z,6.30
2019-03-20T02:51:59.724Z,6.10
2019-03-20T02:53:03.356Z,6.10
2019-03-20T02:54:06.958Z,6.00
2019-03-20T02:55:11.509Z,6.50
2019-03-20T02:56:15.142Z,5.92
2019-03-20T02:57:18.757Z,6.78
2019-03-20T02:58:22.429Z,5.90
2019-03-20T02:59:26.083Z,6.12
2019-03-20T03:00:29.731Z,5.60
2019-03-20T03:01:33.387Z,5.37
2019-03-20T03:02:36.981Z,6.30
2019-03-20T03:03:40.592Z,7.00
2019-03-20T03:04:44.257Z,6.25
2019-03-20T03:05:47.960Z,6.58
2019-03-20T03:06:51.571Z,6.75
2019-03-20T03:07:55.173Z,6.85
2019-03-20T03:08:58.768Z,7.20
2019-03-20T03:10:02.441Z,6.12
2019-03-20T03:11:06.259Z,6.08
2019-03-20T03:12:09.864Z,5.83
2019-03-20T03:13:13.467Z,6.47
2019-03-20T03:14:17.162Z,7.05
2019-03-20T03:15:20.793Z,6.40
2019-03-20T03:16:24.439Z,7.45
2019-03-20T03:17:28.040Z,7.05
2019-03-20T03:18:31.686Z,6.70
2019-03-20T03:19:35.294Z,7.55
2019-03-20T03:20:38.967Z,6.72
2019-03-20T03:21:42.558Z,6.62
2019-03-20T03:22:46.168Z,7.70
2019-03-20T03:23:49.802Z,7.67
2019-03-20T03:24:53.416Z,6.28
2019-03-20T03:25:57.075Z,6.92
2019-03-20T03:27:00.695Z,6.95
2019-03-20T03:28:04.463Z,6.37
2019-03-20T03:29:08.047Z,7.22
2019-03-20T03:30:13.753Z,7.05
2019-03-20T03:31:17.384Z,6.90
2019-03-20T03:32:21.006Z,6.83
2019-03-20T03:33:24.655Z,8.15
2019-03-20T03:34:28.297Z,6.87
2019-03-20T03:35:31.936Z,6.85
2019-03-20T03:36:35.572Z,7.72
2019-03-20T03:37:39.246Z,7.00
2019-03-20T03:38:42.903Z,7.87
2019-03-20T03:39:46.525Z,7.00
2019-03-20T03:40:50.182Z,6.53
2019-03-20T03:41:53.866Z,6.90
2019-03-20T03:42:57.511Z,6.85
2019-03-20T03:44:01.361Z,6.80
2019-03-20T03:45:07.996Z,7.08
2019-03-20T03:46:11.718Z,6.37
2019-03-20T03:47:15.337Z,6.78
2019-03-20T03:48:18.984Z,7.60
2019-03-20T03:49:22.590Z,7.47
2019-03-20T03:50:26.260Z,7.20
2019-03-20T03:51:29.891Z,6.60
2019-03-20T03:52:33.501Z,6.08
2019-03-20T03:53:37.117Z,6.35
2019-03-20T03:54:40.761Z,6.65
2019-03-20T03:55:44.386Z,5.58
2019-03-20T03:56:48.715Z,6.03
2019-03-20T03:57:52.471Z,6.67
2019-03-20T03:58:56.130Z,5.30
2019-03-20T03:59:59.872Z,5.85
2019-03-20T04:01:03.626Z,6.37
2019-03-20T04:02:07.230Z,6.05
2019-03-20T04:03:11.050Z,5.70
2019-03-20T04:04:14.664Z,6.08
2019-03-20T04:05:18.341Z,5.90
2019-03-20T04:06:34.865Z,6.22
2019-03-20T04:07:27.597Z,5.40
2019-03-20T04:08:31.262Z,5.55
2019-03-20T04:09:34.876Z,4.97
2019-03-20T04:10:38.558Z,6.08
2019-03-20T04:11:42.172Z,5.83
2019-03-20T04:12:45.786Z,5.30
2019-03-20T04:13:49.497Z,5.70
2019-03-20T04:14:53.104Z,5.20
2019-03-20T04:15:56.749Z,5.40
2019-03-20T04:17:00.382Z,5.85
2019-03-20T04:18:04.124Z,5.75
2019-03-20T04:19:07.703Z,6.25
2019-03-20T04:20:20.689Z,6.25
2019-03-20T04:21:24.336Z,5.33
2019-03-20T04:22:28.029Z,5.47
2019-03-20T04:23:31.659Z,5.47
2019-03-20T04:24:35.317Z,5.70
2019-03-20T04:25:38.957Z,5.53
2019-03-20T04:26:42.557Z,6.03
2019-03-20T04:27:46.224Z,6.05
2019-03-20T04:28:49.895Z,5.33
2019-03-20T04:29:53.552Z,6.10
2019-03-20T04:30:57.146Z,5.35
2019-03-20T04:32:00.784Z,5.10
2019-03-20T04:33:04.459Z,5.08
2019-03-20T04:34:08.112Z,4.50
2019-03-20T04:35:12.038Z,5.22
2019-03-20T04:36:15.647Z,4.65
2019-03-20T04:37:19.328Z,4.85
2019-03-20T04:38:22.941Z,5.12
2019-03-20T04:39:26.553Z,4.22
2019-03-20T04:40:30.222Z,4.90
2019-03-20T04:41:33.831Z,4.33
2019-03-20T04:42:37.543Z,4.55
2019-03-20T04:43:41.163Z,4.70
2019-03-20T04:44:44.758Z,4.62
2019-03-20T04:45:48.368Z,5.03
2019-03-20T04:46:52.013Z,4.40
2019-03-20T04:47:55.616Z,5.15
2019-03-20T04:48:59.234Z,4.70
2019-03-20T04:50:03.022Z,5.12
2019-03-20T04:51:06.704Z,5.87
2019-03-20T04:52:10.347Z,5.37
2019-03-20T04:53:14.008Z,5.83
2019-03-20T04:54:17.614Z,4.83
2019-03-20T04:55:21.217Z,5.58
2019-03-20T04:56:24.860Z,5.20
2019-03-20T04:57:28.465Z,5.45
2019-03-20T04:58:32.070Z,6.40
2019-03-20T04:59:35.686Z,5.08
2019-03-20T05:00:39.327Z,6.30
2019-03-20T05:01:42.941Z,6.12
2019-03-20T05:02:46.601Z,5.53
2019-03-20T05:03:50.211Z,5.65
2019-03-20T05:04:53.862Z,5.40
2019-03-20T05:05:57.459Z,5.67
2019-03-20T05:07:01.054Z,5.60
2019-03-20T05:08:04.733Z,5.70
2019-03-20T05:09:08.325Z,5.92
2019-03-20T05:10:15.767Z,5.60
2019-03-20T05:11:19.378Z,6.53
2019-03-20T05:12:22.984Z,6.00
2019-03-20T05:13:26.594Z,5.72
2019-03-20T05:14:30.209Z,5.95
2019-03-20T05:15:33.853Z,6.47
2019-03-20T05:16:37.463Z,6.00
2019-03-20T05:17:41.072Z,5.70
2019-03-20T05:18:44.682Z,5.70
2019-03-20T05:19:48.283Z,5.60
2019-03-20T05:20:51.925Z,5.00
2019-03-20T05:21:55.522Z,6.37
2019-03-20T05:22:59.124Z,5.45
2019-03-20T05:24:02.759Z,5.00
2019-03-20T05:25:06.940Z,4.55
2019-03-20T05:26:10.538Z,4.58
2019-03-20T05:27:14.140Z,4.90
2019-03-20T05:28:17.739Z,4.80
2019-03-20T05:29:21.332Z,5.37
2019-03-20T05:30:25.001Z,4.20
2019-03-20T05:31:28.609Z,4.40
2019-03-20T05:32:32.273Z,5.55
2019-03-20T05:33:35.881Z,4.95
2019-03-20T05:34:39.499Z,5.60
2019-03-20T05:35:43.109Z,5.22
2019-03-20T05:36:46.725Z,5.90
2019-03-20T05:37:50.428Z,5.70
2019-03-20T05:38:54.076Z,5.78
2019-03-20T05:39:57.700Z,5.70
2019-03-20T05:41:01.330Z,5.87
2019-03-20T05:42:05.022Z,59.95
2019-03-20T05:43:08.627Z,133.27
2019-03-20T05:44:12.239Z,89.87
2019-03-20T05:45:21.651Z,22.37
2019-03-20T05:46:25.285Z,13.43
2019-03-20T05:47:28.888Z,27.05
2019-03-20T05:48:32.586Z,9.90
2019-03-20T05:49:36.146Z,19.48
2019-03-20T05:50:39.842Z,8.55
2019-03-20T05:51:43.440Z,7.87
2019-03-20T05:52:47.203Z,7.30
2019-03-20T05:53:50.806Z,21.17
2019-03-20T05:54:54.407Z,9.30
2019-03-20T05:55:58.058Z,8.35
2019-03-20T05:57:01.665Z,13.65
2019-03-20T05:58:05.263Z,13.18
2019-03-20T05:59:08.858Z,8.63
2019-03-20T06:00:21.303Z,7.15
2019-03-20T06:01:25.012Z,6.90
2019-03-20T06:02:28.695Z,6.90
2019-03-20T06:03:32.287Z,6.28
2019-03-20T06:04:35.891Z,6.97
2019-03-20T06:05:39.507Z,6.50
2019-03-20T06:06:43.095Z,6.47
2019-03-20T06:07:46.752Z,10.98
2019-03-20T06:08:50.345Z,6.28
2019-03-20T06:09:53.955Z,6.53
2019-03-20T06:10:57.574Z,6.53
2019-03-20T06:12:01.168Z,4.97
2019-03-20T06:13:04.877Z,5.80
2019-03-20T06:14:08.474Z,6.00
2019-03-20T06:15:12.840Z,5.37
2019-03-20T06:16:16.456Z,6.28
2019-03-20T06:17:20.078Z,5.60
2019-03-20T06:18:23.678Z,5.00
2019-03-20T06:19:27.281Z,6.10
2019-03-20T06:20:30.932Z,5.00
2019-03-20T06:21:34.527Z,5.37
2019-03-20T06:22:38.109Z,5.25
2019-03-20T06:23:41.715Z,5.92
2019-03-20T06:24:45.315Z,5.60
2019-03-20T06:25:51.331Z,5.30
2019-03-20T06:26:54.200Z,5.92
2019-03-20T06:27:57.798Z,5.95
2019-03-20T06:29:01.443Z,5.90
2019-03-20T06:30:14.046Z,5.97
2019-03-20T06:31:18.831Z,5.90
2019-03-20T06:32:22.572Z,5.97
2019-03-20T06:33:26.173Z,5.45
2019-03-20T06:34:29.763Z,7.97
2019-03-20T06:35:33.398Z,6.35
2019-03-20T06:36:36.987Z,6.55
2019-03-20T06:37:40.654Z,5.65
2019-03-20T06:38:44.291Z,5.95
2019-03-20T06:39:47.889Z,6.12
2019-03-20T06:40:51.477Z,6.03
2019-03-20T06:41:55.090Z,5.40
2019-03-20T06:42:58.740Z,5.28
2019-03-20T06:44:02.330Z,5.05
2019-03-20T06:45:08.976Z,5.45
2019-03-20T06:46:12.588Z,6.78
2019-03-20T06:47:16.260Z,5.72
2019-03-20T06:48:19.907Z,6.83
2019-03-20T06:49:23.508Z,5.70
2019-03-20T06:50:27.107Z,5.15
2019-03-20T06:51:30.698Z,5.47
2019-03-20T06:52:34.292Z,5.30
2019-03-20T06:53:37.939Z,5.40
2019-03-20T06:54:41.528Z,5.60
2019-03-20T06:55:45.143Z,4.40
2019-03-20T06:56:48.728Z,4.40
2019-03-20T06:57:52.380Z,4.72
2019-03-20T06:59:21.729Z,4.75
2019-03-20T07:00:55.427Z,4.80
2019-03-20T07:02:01.264Z,5.25
2019-03-20T07:03:24.672Z,4.75
2019-03-20T07:04:47.801Z,4.33
2019-03-20T07:06:06.718Z,4.72
2019-03-20T07:07:15.324Z,4.30
2019-03-20T07:08:19.757Z,4.50
2019-03-20T07:09:26.473Z,4.20
2019-03-20T07:11:11.622Z,5.28
2019-03-20T07:12:15.189Z,4.22
2019-03-20T07:13:18.840Z,6.10
2019-03-20T07:14:22.431Z,5.22
2019-03-20T07:15:26.033Z,6.03
2019-03-20T07:16:29.669Z,5.00
2019-03-20T07:17:33.257Z,4.70
2019-03-20T07:18:36.865Z,4.75
2019-03-20T07:19:40.511Z,4.60
2019-03-20T07:20:44.114Z,4.72
2019-03-20T07:21:47.779Z,5.12
2019-03-20T07:22:51.375Z,4.70
2019-03-20T07:23:55.022Z,5.05
2019-03-20T07:24:58.667Z,4.50
2019-03-20T07:26:02.258Z,4.70
2019-03-20T07:27:05.863Z,4.80
2019-03-20T07:28:09.474Z,5.35
2019-03-20T07:29:13.118Z,5.20
2019-03-20T07:30:16.783Z,5.03
2019-03-20T07:31:20.454Z,4.80
2019-03-20T07:32:24.054Z,5.20
2019-03-20T07:33:27.653Z,5.00
2019-03-20T07:34:31.297Z,5.55
2019-03-20T07:35:34.898Z,4.65
2019-03-20T07:36:38.511Z,5.15
2019-03-20T07:37:42.111Z,4.97
2019-03-20T07:38:45.716Z,4.53
2019-03-20T07:39:49.365Z,4.70
2019-03-20T07:40:53.045Z,4.42
2019-03-20T07:41:56.636Z,4.67
2019-03-20T07:43:08.320Z,4.53
2019-03-20T07:44:05.675Z,4.47
2019-03-20T07:45:10.308Z,4.62
2019-03-20T07:46:13.918Z,5.60
2019-03-20T07:47:17.516Z,5.67
2019-03-20T07:48:22.501Z,4.92
2019-03-20T07:49:26.344Z,4.95
2019-03-20T07:50:29.946Z,5.28
2019-03-20T07:51:33.589Z,4.62
2019-03-20T07:52:37.191Z,4.20
2019-03-20T07:53:40.801Z,4.58
2019-03-20T07:54:44.389Z,4.42
2019-03-20T07:55:47.989Z,4.97
2019-03-20T07:56:51.632Z,4.10
2019-03-20T07:57:55.225Z,5.20
2019-03-20T07:58:58.831Z,3.92
2019-03-20T08:00:02.620Z,5.35
2019-03-20T08:01:06.317Z,5.53
2019-03-20T08:02:09.916Z,5.50
2019-03-20T08:03:13.510Z,4.80
2019-03-20T08:04:17.119Z,4.55
2019-03-20T08:05:28.698Z,6.22
2019-03-20T08:06:26.006Z,5.35
2019-03-20T08:07:29.614Z,4.85
2019-03-20T08:08:33.216Z,4.95
2019-03-20T08:09:36.901Z,5.20
2019-03-20T08:10:40.618Z,5.50
2019-03-20T08:11:44.267Z,5.40
2019-03-20T08:12:47.865Z,4.95
2019-03-20T08:13:51.532Z,5.95
2019-03-20T08:14:55.138Z,4.65
2019-03-20T08:15:58.952Z,5.40
2019-03-20T08:17:02.629Z,5.17
2019-03-20T08:18:06.377Z,4.95
2019-03-20T08:19:10.025Z,5.42
2019-03-20T08:20:19.409Z,6.08
2019-03-20T08:21:23.059Z,4.90
2019-03-20T08:22:26.666Z,4.90
2019-03-20T08:23:30.274Z,5.00
2019-03-20T08:24:34.007Z,5.37
2019-03-20T08:25:37.625Z,5.05
2019-03-20T08:26:41.391Z,5.30
2019-03-20T08:27:44.993Z,5.05
2019-03-20T08:28:48.595Z,5.97
2019-03-20T08:29:52.270Z,4.30
2019-03-20T08:30:55.828Z,4.70
2019-03-20T08:31:59.477Z,4.50
2019-03-20T08:33:03.111Z,5.00
2019-03-20T08:34:06.712Z,4.72
2019-03-20T08:35:11.958Z,4.62
2019-03-20T08:36:15.624Z,4.60
2019-03-20T08:37:19.276Z,4.53
2019-03-20T08:38:22.869Z,4.20
2019-03-20T08:39:26.664Z,4.90
2019-03-20T08:40:30.297Z,4.30
2019-03-20T08:41:33.904Z,4.12
2019-03-20T08:42:37.505Z,4.20
2019-03-20T08:43:41.132Z,3.87
2019-03-20T08:44:44.777Z,4.40
2019-03-20T08:45:48.363Z,4.08
2019-03-20T08:46:51.985Z,4.65
2019-03-20T08:47:55.585Z,3.67
2019-03-20T08:48:59.182Z,3.75
2019-03-20T08:50:02.882Z,3.72
2019-03-20T08:51:06.600Z,3.80
2019-03-20T08:52:10.197Z,4.12
2019-03-20T08:53:13.794Z,3.87
2019-03-20T08:54:17.423Z,5.03
2019-03-20T08:55:21.778Z,4.53
2019-03-20T08:56:25.452Z,3.77
2019-03-20T08:57:29.062Z,4.33
2019-03-20T08:58:32.659Z,4.58
2019-03-20T08:59:36.334Z,3.33
2019-03-20T09:00:40.037Z,4.50
2019-03-20T09:01:43.685Z,4.90
2019-03-20T09:02:47.577Z,4.55
2019-03-20T09:03:51.178Z,4.00
2019-03-20T09:04:54.778Z,5.30
2019-03-20T09:05:58.393Z,3.10
2019-03-20T09:07:02.055Z,4.37
2019-03-20T09:08:05.657Z,4.55
2019-03-20T09:09:09.260Z,4.40
2019-03-20T09:10:25.707Z,4.37
2019-03-20T09:11:29.365Z,3.80
2019-03-20T09:12:32.972Z,4.67
2019-03-20T09:13:36.580Z,4.35
2019-03-20T09:14:40.201Z,3.75
2019-03-20T09:15:43.798Z,5.00
2019-03-20T09:16:47.451Z,4.75
2019-03-20T09:17:51.119Z,3.70
2019-03-20T09:18:54.769Z,4.87
2019-03-20T09:19:58.381Z,4.30
2019-03-20T09:21:01.991Z,5.20
2019-03-20T09:22:05.663Z,5.15
2019-03-20T09:23:09.269Z,5.15
2019-03-20T09:24:12.917Z,4.47
2019-03-20T09:25:23.393Z,5.00
2019-03-20T09:26:27.007Z,4.62
2019-03-20T09:27:30.654Z,4.80
2019-03-20T09:28:34.301Z,4.50
2019-03-20T09:29:37.903Z,4.90
2019-03-20T09:30:41.518Z,4.60
2019-03-20T09:31:45.127Z,4.28
2019-03-20T09:32:48.873Z,5.83
2019-03-20T09:33:52.588Z,7.03
2019-03-20T09:34:56.250Z,5.47
2019-03-20T09:35:59.926Z,4.87
2019-03-20T09:37:03.570Z,5.40
2019-03-20T09:38:07.182Z,5.33
2019-03-20T09:39:10.794Z,5.00
2019-03-20T09:40:17.466Z,5.55
2019-03-20T09:41:21.124Z,5.35
2019-03-20T09:42:24.730Z,5.60
2019-03-20T09:43:28.355Z,5.33
2019-03-20T09:44:31.997Z,5.67
2019-03-20T09:45:35.600Z,4.83
2019-03-20T09:46:39.219Z,5.33
2019-03-20T09:47:42.900Z,5.78
2019-03-20T09:48:46.553Z,5.60
2019-03-20T09:49:50.155Z,5.20
2019-03-20T09:50:53.764Z,6.87
2019-03-20T09:51:57.366Z,6.40
2019-03-20T09:53:00.995Z,6.22
2019-03-20T09:54:04.761Z,5.95
2019-03-20T09:55:10.609Z,5.58
2019-03-20T09:56:14.214Z,6.10
2019-03-20T09:57:17.807Z,5.53
2019-03-20T09:58:21.473Z,5.85
2019-03-20T09:59:25.080Z,5.28
2019-03-20T10:00:29.523Z,6.35
2019-03-20T10:01:33.166Z,6.05
2019-03-20T10:02:36.810Z,5.78
2019-03-20T10:03:40.436Z,5.95
2019-03-20T10:04:44.030Z,6.03
2019-03-20T10:05:47.628Z,7.40
2019-03-20T10:06:51.275Z,6.00
2019-03-20T10:07:54.886Z,6.97
2019-03-20T10:08:58.479Z,5.97
2019-03-20T10:10:02.123Z,6.87
2019-03-20T10:11:05.799Z,6.83
2019-03-20T10:12:09.401Z,6.40
2019-03-20T10:13:13.112Z,6.75
2019-03-20T10:14:16.742Z,5.50
2019-03-20T10:15:21.688Z,7.03
2019-03-20T10:16:25.292Z,7.30
2019-03-20T10:17:28.900Z,7.08
2019-03-20T10:18:32.567Z,8.08
2019-03-20T10:19:36.166Z,7.78
2019-03-20T10:20:39.833Z,9.88
2019-03-20T10:21:43.436Z,7.35
2019-03-20T10:22:47.108Z,8.60
2019-03-20T10:23:50.751Z,8.65
2019-03-20T10:24:54.368Z,7.37
2019-03-20T10:25:57.972Z,7.22
2019-03-20T10:27:01.580Z,8.08
2019-03-20T10:28:05.256Z,8.50
2019-03-20T10:29:08.896Z,7.58
2019-03-20T10:30:22.943Z,8.48
2019-03-20T10:31:26.570Z,7.80
2019-03-20T10:32:30.171Z,7.30
2019-03-20T10:33:33.827Z,7.40
2019-03-20T10:34:39.659Z,7.30
2019-03-20T10:35:50.339Z,7.20
2019-03-20T10:36:47.951Z,7.25
2019-03-20T10:37:51.611Z,5.90
2019-03-20T10:39:06.061Z,5.70
2019-03-20T10:40:00.515Z,6.55
2019-03-20T10:41:04.238Z,6.47
2019-03-20T10:42:08.256Z,6.53
2019-03-20T10:43:11.911Z,6.58
2019-03-20T10:44:15.529Z,6.45
2019-03-20T10:45:19.769Z,6.20
2019-03-20T10:46:23.429Z,6.28
2019-03-20T10:47:27.029Z,7.05
2019-03-20T10:48:30.629Z,6.58
2019-03-20T10:49:34.240Z,5.40
2019-03-20T10:50:37.856Z,6.83
2019-03-20T10:51:41.500Z,6.05
2019-03-20T10:52:45.177Z,6.28
2019-03-20T10:53:48.776Z,7.03
2019-03-20T10:54:52.414Z,6.30
2019-03-20T10:55:55.990Z,5.83
2019-03-20T10:56:59.652Z,6.10
2019-03-20T10:58:03.276Z,4.60
2019-03-20T10:59:06.937Z,5.35
2019-03-20T11:00:19.134Z,5.37
2019-03-20T11:01:22.756Z,4.75
2019-03-20T11:02:26.403Z,5.03
2019-03-20T11:03:30.081Z,4.40
2019-03-20T11:04:33.725Z,4.60
2019-03-20T11:05:37.339Z,5.10
2019-03-20T11:06:40.942Z,4.62
2019-03-20T11:07:44.602Z,4.25
2019-03-20T11:08:48.245Z,5.30
2019-03-20T11:09:51.911Z,4.35
2019-03-20T11:10:55.557Z,3.67
2019-03-20T11:11:59.169Z,4.80
2019-03-20T11:13:02.779Z,4.08
2019-03-20T11:14:06.422Z,5.15
2019-03-20T11:15:12.678Z,4.95
2019-03-20T11:16:16.274Z,4.45
2019-03-20T11:17:19.893Z,4.37
2019-03-20T11:18:23.493Z,4.95
2019-03-20T11:19:27.138Z,4.90
2019-03-20T11:20:30.745Z,4.60
2019-03-20T11:21:34.363Z,4.00
2019-03-20T11:22:37.972Z,5.33
2019-03-20T11:23:41.564Z,4.72
2019-03-20T11:24:46.111Z,4.40
2019-03-20T11:25:49.715Z,4.20
2019-03-20T11:26:53.382Z,3.85
2019-03-20T11:27:57.175Z,4.47
2019-03-20T11:29:00.782Z,5.20
2019-03-20T11:30:07.496Z,4.30
2019-03-20T11:31:11.133Z,4.30
2019-03-20T11:32:14.814Z,4.65
2019-03-20T11:33:18.473Z,4.10
2019-03-20T11:34:22.073Z,4.53
2019-03-20T11:35:25.744Z,3.70
2019-03-20T11:36:29.366Z,4.50
2019-03-20T11:37:32.964Z,4.35
2019-03-20T11:38:36.611Z,4.60
2019-03-20T11:39:40.249Z,3.37
2019-03-20T11:40:43.924Z,3.72
2019-03-20T11:41:47.572Z,3.62
2019-03-20T11:42:51.241Z,3.40
2019-03-20T11:43:54.892Z,3.85
2019-03-20T11:44:58.509Z,4.50
2019-03-20T11:46:02.145Z,4.40
2019-03-20T11:47:05.749Z,4.00
2019-03-20T11:48:09.419Z,3.83
2019-03-20T11:49:13.020Z,3.55
2019-03-20T11:50:19.748Z,3.22
2019-03-20T11:51:23.347Z,3.98
2019-03-20T11:52:26.938Z,4.50
2019-03-20T11:53:30.552Z,5.05
2019-03-20T11:54:34.203Z,4.47
2019-03-20T11:55:38.388Z,3.87
2019-03-20T11:56:41.977Z,4.25
2019-03-20T11:57:45.730Z,3.75
2019-03-20T11:58:49.444Z,3.80
2019-03-20T11:59:53.052Z,4.85
2019-03-20T12:00:56.658Z,4.40
2019-03-20T12:02:00.263Z,4.40
2019-03-20T12:03:04.264Z,3.95
2019-03-20T12:04:07.854Z,4.53
2019-03-20T12:05:11.744Z,8.30
2019-03-20T12:06:15.350Z,15.80
2019-03-20T12:07:18.954Z,5.55
2019-03-20T12:08:22.558Z,4.60
2019-03-20T12:09:26.171Z,4.70
2019-03-20T12:10:31.056Z,4.67
2019-03-20T12:11:45.218Z,5.10
2019-03-20T12:12:39.929Z,5.22
2019-03-20T12:13:43.570Z,4.15
2019-03-20T12:14:47.163Z,4.50
2019-03-20T12:15:50.764Z,4.30
2019-03-20T12:16:54.367Z,5.33
2019-03-20T12:17:58.036Z,4.92
2019-03-20T12:19:01.692Z,4.40
2019-03-20T12:20:08.373Z,12.90
2019-03-20T12:21:11.982Z,5.37
2019-03-20T12:22:15.589Z,4.80
2019-03-20T12:23:19.241Z,4.42
2019-03-20T12:24:22.848Z,6.92
2019-03-20T12:25:28.212Z,5.75
2019-03-20T12:26:31.819Z,5.00
2019-03-20T12:27:35.424Z,4.70
2019-03-20T12:28:39.062Z,4.85
2019-03-20T12:29:42.679Z,4.87
2019-03-20T12:30:46.304Z,4.83
2019-03-20T12:31:49.922Z,4.25
2019-03-20T12:32:53.585Z,4.30
2019-03-20T12:33:57.234Z,4.72
2019-03-20T12:35:00.888Z,4.25
2019-03-20T12:36:04.658Z,4.65
2019-03-20T12:37:08.313Z,4.60
2019-03-20T12:38:14.741Z,4.30
2019-03-20T12:39:17.249Z,5.03
2019-03-20T12:40:23.961Z,4.55
2019-03-20T12:41:27.570Z,4.40
2019-03-20T12:42:31.174Z,4.65
2019-03-20T12:43:34.860Z,3.90
2019-03-20T12:44:38.513Z,4.42
2019-03-20T12:45:42.188Z,4.40
2019-03-20T12:46:45.804Z,4.00
2019-03-20T12:47:49.420Z,3.92
2019-03-20T12:48:53.049Z,3.90
2019-03-20T12:49:56.714Z,4.50
2019-03-20T12:51:00.358Z,4.30
2019-03-20T12:52:04.042Z,4.03
2019-03-20T12:53:09.840Z,3.87
2019-03-20T12:54:13.438Z,3.33
2019-03-20T12:55:18.507Z,3.30
2019-03-20T12:56:22.160Z,3.60
2019-03-20T12:57:25.768Z,3.83
2019-03-20T12:58:29.386Z,4.53
2019-03-20T12:59:33.000Z,3.52
2019-03-20T13:00:36.751Z,3.65
2019-03-20T13:01:40.391Z,3.65
2019-03-20T13:02:44.168Z,4.10
2019-03-20T13:03:47.814Z,3.60
2019-03-20T13:04:51.439Z,3.07
2019-03-20T13:05:55.039Z,3.40
2019-03-20T13:06:58.676Z,3.67
2019-03-20T13:08:05.971Z,3.60
2019-03-20T13:09:08.165Z,4.27
2019-03-20T13:10:19.747Z,3.13
2019-03-20T13:11:23.358Z,3.10
2019-03-20T13:12:26.962Z,3.60
2019-03-20T13:13:30.572Z,4.13
2019-03-20T13:14:34.178Z,3.67
2019-03-20T13:15:37.995Z,4.50
2019-03-20T13:16:41.604Z,3.20
2019-03-20T13:17:45.278Z,3.67
2019-03-20T13:18:48.997Z,3.77
2019-03-20T13:19:52.595Z,3.47
2019-03-20T13:20:56.244Z,3.47
2019-03-20T13:21:59.836Z,3.57
2019-03-20T13:23:18.556Z,4.10
2019-03-20T13:24:22.157Z,3.80
2019-03-20T13:25:25.767Z,3.47
2019-03-20T13:26:29.394Z,4.20
2019-03-20T13:27:33.947Z,3.80
2019-03-20T13:28:37.610Z,4.20
2019-03-20T13:29:41.269Z,4.50
2019-03-20T13:31:00.069Z,4.97
2019-03-20T13:32:03.834Z,4.50
2019-03-20T13:33:07.585Z,5.80
2019-03-20T13:34:11.188Z,4.50
2019-03-20T13:35:14.796Z,4.73
2019-03-20T13:36:18.527Z,4.10
2019-03-20T13:37:22.133Z,5.10
2019-03-20T13:38:25.815Z,4.50
2019-03-20T13:39:29.416Z,5.23
2019-03-20T13:40:33.102Z,5.03
2019-03-20T13:41:36.750Z,5.40
2019-03-20T13:42:40.422Z,4.90
2019-03-20T13:43:44.026Z,5.63
2019-03-20T13:44:47.690Z,4.83
2019-03-20T13:45:51.297Z,4.90
2019-03-20T13:46:54.894Z,5.60
2019-03-20T13:47:58.507Z,4.87
2019-03-20T13:49:02.195Z,5.30
2019-03-20T13:50:09.412Z,5.17
2019-03-20T13:51:13.014Z,5.30
2019-03-20T13:52:16.619Z,4.90
2019-03-20T13:53:20.275Z,5.27
2019-03-20T13:54:23.940Z,5.93
2019-03-20T13:55:27.533Z,4.63
2019-03-20T13:56:31.187Z,4.80
2019-03-20T13:57:34.795Z,5.00
2019-03-20T13:58:38.453Z,5.57
2019-03-20T13:59:42.065Z,5.80
2019-03-20T14:00:45.664Z,5.77
2019-03-20T14:01:49.323Z,5.40
2019-03-20T14:02:52.984Z,5.60
2019-03-20T14:03:56.597Z,5.40
2019-03-20T14:05:00.411Z,5.60
2019-03-20T14:06:04.104Z,5.57
2019-03-20T14:07:07.712Z,5.07
2019-03-20T14:08:11.378Z,4.90
2019-03-20T14:09:14.981Z,6.37
2019-03-20T14:10:25.652Z,6.00
2019-03-20T14:11:29.460Z,6.00
2019-03-20T14:12:33.570Z,6.37
2019-03-20T14:13:37.218Z,6.00